Time;durP1;ratioP1;P1;durP2;ratioP2;P2;SDS_P1;SDS_P2;PMS_P1;PMS_P2;Temp;Humidity;BMP_temperature;BMP_pressure;BME280_temperature;BME280_humidity;BME280_pressure;Samples;Min_cycle;Max_cycle;Signal;HPM_P1;HPM_P2
2023/01/25 00:02:14;;;;;;;32.65;13.48;;;;;;;;;;5041719;28;20045;-67
2023/01/25 00:04:39;;;;;;;25.27;11.77;;;;;;;;;;5041166;28;20076;-64
2023/01/25 00:07:05;;;;;;;26.45;13.70;;;;;;;;;;5042280;28;20091;-65
2023/01/25 00:09:30;;;;;;;24.52;10.60;;;;;;;;;;5042289;28;20056;-64
2023/01/25 00:11:57;;;;;;;24.10;11.05;;;;;;;;;;5042374;28;20052;-65
2023/01/25 00:14:23;;;;;;;29.98;13.10;;;;;;;;;;5040599;28;20063;-65
2023/01/25 00:16:50;;;;;;;25.88;12.70;;;;;;;;;;5040176;28;20041;-67
2023/01/25 00:19:15;;;;;;;31.67;16.05;;;;;;;;;;5042205;28;20052;-66
2023/01/25 00:21:41;;;;;;;34.40;14.73;;;;;;;;;;5041934;28;20041;-66
2023/01/25 00:24:07;;;;;;;35.40;15.55;;;;;;;;;;5040396;28;20040;-66
2023/01/25 00:26:33;;;;;;;29.63;13.30;;;;;;;;;;5040124;28;20151;-64
2023/01/25 00:28:59;;;;;;;22.65;12.55;;;;;;;;;;5041891;28;20045;-65
2023/01/25 00:31:49;;;;;;;22.40;11.70;;;;;;;;;;5041406;28;20113;-65
2023/01/25 00:34:23;;;;;;;30.17;14.52;;;;;;;;;;5041199;28;20109;-64
2023/01/25 00:37:09;;;;;;;29.27;13.07;;;;;;;;;;5040031;28;20071;-65
2023/01/25 00:39:38;;;;;;;30.70;14.73;;;;;;;;;;5040344;28;20965;-65
2023/01/25 00:42:04;;;;;;;28.70;14.48;;;;;;;;;;5041320;28;20094;-65
2023/01/25 00:44:30;;;;;;;20.88;9.98;;;;;;;;;;5041362;28;20045;-63
2023/01/25 00:46:55;;;;;;;24.00;12.10;;;;;;;;;;5039873;28;20040;-64
2023/01/25 00:49:24;;;;;;;21.70;11.00;;;;;;;;;;5040270;28;20037;-65
2023/01/25 00:51:50;;;;;;;39.63;14.40;;;;;;;;;;5041411;28;21011;-64
2023/01/25 00:54:16;;;;;;;21.73;9.95;;;;;;;;;;5041380;28;20044;-68
2023/01/25 00:56:44;;;;;;;28.58;13.60;;;;;;;;;;5039436;28;20095;-68
2023/01/25 00:59:10;;;;;;;26.50;12.50;;;;;;;;;;5040797;28;20099;-68
2023/01/25 01:01:37;;;;;;;31.48;14.70;;;;;;;;;;5040936;28;20045;-67
2023/01/25 01:04:02;;;;;;;23.55;10.75;;;;;;;;;;5040765;28;20514;-66
2023/01/25 01:06:28;;;;;;;30.40;13.13;;;;;;;;;;5055487;28;20052;-65
2023/01/25 01:08:53;;;;;;;23.00;10.20;;;;;;;;;;5055955;28;20045;-65
2023/01/25 01:11:19;;;;;;;45.28;16.85;;;;;;;;;;5040538;28;20040;-68
2023/01/25 01:13:44;;;;;;;47.97;14.75;;;;;;;;;;5041139;28;20091;-64
2023/01/25 01:16:11;;;;;;;51.05;16.67;;;;;;;;;;5038438;28;20123;-66
2023/01/25 01:18:42;;;;;;;44.67;17.33;;;;;;;;;;5039622;28;20088;-65
2023/01/25 01:21:09;;;;;;;40.67;14.73;;;;;;;;;;5040244;28;20049;-64
2023/01/25 01:23:35;;;;;;;48.10;15.75;;;;;;;;;;5041962;28;20079;-64
2023/01/25 01:26:02;;;;;;;63.38;20.00;;;;;;;;;;5038575;28;20107;-64
2023/01/25 01:28:29;;;;;;;58.00;20.35;;;;;;;;;;5038707;28;20068;-64
2023/01/25 01:31:02;;;;;;;58.40;17.15;;;;;;;;;;5039058;28;20055;-64
2023/01/25 01:33:31;;;;;;;54.42;18.67;;;;;;;;;;5039258;28;20056;-64
2023/01/25 01:35:57;;;;;;;47.50;17.58;;;;;;;;;;5038414;28;20048;-68
2023/01/25 01:38:23;;;;;;;44.60;17.55;;;;;;;;;;5036354;28;20056;-68
2023/01/25 01:40:49;;;;;;;46.45;17.02;;;;;;;;;;5040449;28;20124;-66
2023/01/25 01:43:21;;;;;;;46.80;16.48;;;;;;;;;;5039057;28;20041;-66
2023/01/25 01:45:47;;;;;;;32.80;12.18;;;;;;;;;;5026877;28;20131;-65
2023/01/25 01:48:17;;;;;;;33.17;13.77;;;;;;;;;;5037744;28;20652;-66
2023/01/25 01:50:43;;;;;;;41.10;15.30;;;;;;;;;;5040209;28;21063;-66
2023/01/25 01:53:08;;;;;;;29.15;11.68;;;;;;;;;;5039289;28;20091;-65
2023/01/25 01:55:35;;;;;;;44.65;16.63;;;;;;;;;;5038207;28;20090;-65
2023/01/25 01:58:02;;;;;;;48.58;15.77;;;;;;;;;;5038573;28;20068;-69
2023/01/25 02:00:32;;;;;;;42.25;15.50;;;;;;;;;;5037869;28;20037;-65
2023/01/25 02:03:00;;;;;;;49.47;15.60;;;;;;;;;;5040441;28;20040;-65
2023/01/25 02:05:31;;;;;;;46.38;16.15;;;;;;;;;;5037978;28;20417;-67
2023/01/25 02:07:58;;;;;;;42.03;15.07;;;;;;;;;;5022233;28;20061;-67
2023/01/25 02:10:25;;;;;;;14.23;6.80;;;;;;;;;;5054119;28;20045;-65
2023/01/25 02:12:56;;;;;;;44.60;16.00;;;;;;;;;;5039804;28;20136;-66
2023/01/25 02:15:22;;;;;;;46.72;15.50;;;;;;;;;;5038230;28;20049;-65
2023/01/25 02:17:48;;;;;;;49.72;15.85;;;;;;;;;;5038644;28;20087;-65
2023/01/25 02:20:31;;;;;;;41.67;15.68;;;;;;;;;;5038310;28;20049;-65
2023/01/25 02:23:21;;;;;;;49.88;16.98;;;;;;;;;;5054264;28;20041;-65
2023/01/25 02:25:46;;;;;;;37.60;12.50;;;;;;;;;;5039135;28;20037;-65
2023/01/25 02:28:25;;;;;;;38.70;11.82;;;;;;;;;;5031244;28;20406;-65
2023/01/25 02:30:50;;;;;;;36.38;13.20;;;;;;;;;;5038499;28;20090;-65
2023/01/25 02:33:16;;;;;;;39.78;14.80;;;;;;;;;;5037756;28;20045;-65
2023/01/25 02:35:47;;;;;;;35.72;13.50;;;;;;;;;;5039391;28;20091;-66
2023/01/25 02:38:16;;;;;;;35.55;14.63;;;;;;;;;;5037919;28;20094;-65
2023/01/25 02:40:49;;;;;;;39.40;13.80;;;;;;;;;;5038816;28;20045;-65
2023/01/25 02:43:17;;;;;;;40.05;14.68;;;;;;;;;;5037723;28;20046;-65
2023/01/25 02:45:51;;;;;;;32.90;13.90;;;;;;;;;;5037575;28;20049;-65
2023/01/25 02:48:16;;;;;;;28.92;13.55;;;;;;;;;;5039279;28;20079;-65
2023/01/25 02:50:44;;;;;;;28.88;12.02;;;;;;;;;;5038370;28;20049;-66
2023/01/25 02:53:10;;;;;;;35.40;16.00;;;;;;;;;;5038729;28;20119;-64
2023/01/25 02:55:36;;;;;;;30.38;13.07;;;;;;;;;;5037241;28;20127;-65
2023/01/25 02:58:02;;;;;;;26.13;11.57;;;;;;;;;;5041509;28;20130;-65
2023/01/25 03:00:27;;;;;;;31.58;11.82;;;;;;;;;;5041929;28;20045;-64
2023/01/25 03:02:52;;;;;;;27.73;13.77;;;;;;;;;;5042420;28;20202;-65
2023/01/25 03:05:18;;;;;;;33.35;13.05;;;;;;;;;;5040234;28;20086;-65
2023/01/25 03:07:44;;;;;;;28.83;12.88;;;;;;;;;;5043491;28;20149;-65
2023/01/25 03:10:09;;;;;;;24.15;12.15;;;;;;;;;;5041384;28;20041;-65
2023/01/25 03:12:35;;;;;;;27.65;12.32;;;;;;;;;;5041810;28;20059;-66
2023/01/25 03:15:00;;;;;;;21.52;10.00;;;;;;;;;;5042837;28;20178;-65
2023/01/25 03:17:26;;;;;;;17.45;9.18;;;;;;;;;;5040737;28;20044;-66
2023/01/25 03:19:53;;;;;;;24.70;10.25;;;;;;;;;;5042092;28;20044;-65
2023/01/25 03:22:18;;;;;;;21.77;9.52;;;;;;;;;;5041195;28;20040;-66
2023/01/25 03:24:44;;;;;;;24.05;11.52;;;;;;;;;;5041660;28;20175;-65
2023/01/25 03:27:10;;;;;;;24.77;11.27;;;;;;;;;;5039885;28;20680;-65
2023/01/25 03:29:43;;;;;;;21.75;9.88;;;;;;;;;;5041535;28;20056;-65
2023/01/25 03:32:14;;;;;;;18.00;8.88;;;;;;;;;;5041255;28;20098;-64
2023/01/25 03:34:39;;;;;;;19.42;10.10;;;;;;;;;;5042838;28;20041;-65
2023/01/25 03:37:05;;;;;;;19.30;10.43;;;;;;;;;;5041021;28;20045;-66
2023/01/25 03:39:34;;;;;;;18.92;10.27;;;;;;;;;;5041199;28;20044;-64
2023/01/25 03:41:59;;;;;;;20.10;9.68;;;;;;;;;;5041991;28;20033;-65
2023/01/25 03:44:25;;;;;;;18.40;9.35;;;;;;;;;;5041001;28;20048;-65
2023/01/25 03:46:50;;;;;;;18.50;11.13;;;;;;;;;;5040211;28;20191;-65
2023/01/25 03:49:17;;;;;;;17.00;8.60;;;;;;;;;;5042274;28;20458;-65
2023/01/25 03:51:44;;;;;;;16.85;8.85;;;;;;;;;;5041097;28;20049;-65
2023/01/25 03:54:09;;;;;;;16.83;8.50;;;;;;;;;;5042139;28;20107;-65
2023/01/25 03:56:36;;;;;;;16.17;9.23;;;;;;;;;;5040527;28;20529;-65
2023/01/25 03:59:11;;;;;;;16.38;9.38;;;;;;;;;;5041195;28;20109;-66
2023/01/25 04:01:38;;;;;;;15.68;8.80;;;;;;;;;;5040357;28;20532;-65
2023/01/25 04:04:03;;;;;;;16.13;8.52;;;;;;;;;;5041721;28;20069;-66
2023/01/25 04:06:29;;;;;;;17.75;9.85;;;;;;;;;;5040006;28;20167;-66
2023/01/25 04:08:55;;;;;;;16.92;7.82;;;;;;;;;;5040040;28;20045;-65
2023/01/25 04:11:23;;;;;;;19.25;9.77;;;;;;;;;;5039944;28;20044;-65
2023/01/25 04:13:48;;;;;;;20.23;10.10;;;;;;;;;;5042038;28;20057;-65
2023/01/25 04:16:15;;;;;;;13.95;7.95;;;;;;;;;;5039775;28;20095;-66
2023/01/25 04:18:59;;;;;;;18.90;9.63;;;;;;;;;;5057556;28;20051;-65
2023/01/25 04:21:25;;;;;;;21.08;10.02;;;;;;;;;;5057217;28;20103;-65
2023/01/25 04:23:51;;;;;;;18.00;8.90;;;;;;;;;;5039972;28;20036;-66
2023/01/25 04:26:17;;;;;;;21.63;10.30;;;;;;;;;;5039584;28;20047;-66
2023/01/25 04:28:49;;;;;;;21.73;9.57;;;;;;;;;;5038780;28;20146;-66
2023/01/25 04:31:15;;;;;;;17.70;8.90;;;;;;;;;;5041561;28;20126;-66
2023/01/25 04:33:40;;;;;;;12.50;6.38;;;;;;;;;;5040929;28;20117;-66
2023/01/25 04:36:07;;;;;;;18.92;9.65;;;;;;;;;;5037818;28;21042;-66
2023/01/25 04:38:33;;;;;;;12.65;6.72;;;;;;;;;;5056681;28;20044;-65
2023/01/25 04:40:58;;;;;;;17.52;9.43;;;;;;;;;;5023815;28;20041;-65
2023/01/25 04:43:25;;;;;;;33.95;14.00;;;;;;;;;;5040074;28;20512;-65
2023/01/25 04:45:54;;;;;;;40.17;16.13;;;;;;;;;;5055024;28;20064;-66
2023/01/25 04:48:26;;;;;;;42.92;16.40;;;;;;;;;;5039582;28;20449;-65
2023/01/25 04:50:55;;;;;;;24.58;12.07;;;;;;;;;;5039924;28;20076;-66
2023/01/25 04:53:22;;;;;;;28.55;12.25;;;;;;;;;;5040448;28;21042;-67
2023/01/25 04:55:48;;;;;;;24.50;10.43;;;;;;;;;;5038699;28;20898;-65
2023/01/25 04:58:14;;;;;;;24.83;10.90;;;;;;;;;;5039469;28;20099;-66
2023/01/25 05:00:41;;;;;;;19.67;9.98;;;;;;;;;;5039691;28;20048;-65
2023/01/25 05:03:06;;;;;;;18.17;10.05;;;;;;;;;;5039743;28;20048;-66
2023/01/25 05:05:33;;;;;;;13.57;7.90;;;;;;;;;;5039158;28;20401;-66
2023/01/25 05:08:01;;;;;;;17.63;9.57;;;;;;;;;;5039005;28;20053;-66
2023/01/25 05:10:28;;;;;;;14.15;7.30;;;;;;;;;;5038393;28;21002;-66
2023/01/25 05:13:16;;;;;;;15.73;8.52;;;;;;;;;;5020373;28;21073;-66
2023/01/25 05:15:43;;;;;;;16.67;8.13;;;;;;;;;;5021581;28;20075;-66
2023/01/25 05:18:09;;;;;;;9.75;6.20;;;;;;;;;;5037732;28;20116;-67
2023/01/25 05:20:35;;;;;;;14.63;7.53;;;;;;;;;;5039275;28;20106;-65
2023/01/25 05:23:00;;;;;;;15.07;6.78;;;;;;;;;;5038522;28;20047;-65
2023/01/25 05:28:13;;;;;;;10.18;6.25;;;;;;;;;;5026508;28;20075;-66
2023/01/25 05:31:05;;;;;;;19.50;9.32;;;;;;;;;;5030337;28;20041;-67
2023/01/25 05:33:33;;;;;;;10.88;6.35;;;;;;;;;;5054735;28;20090;-67
2023/01/25 05:35:59;;;;;;;12.98;7.03;;;;;;;;;;5039226;28;20041;-66
2023/01/25 05:38:30;;;;;;;15.27;8.02;;;;;;;;;;5037705;28;20048;-66
2023/01/25 05:40:57;;;;;;;17.50;9.10;;;;;;;;;;5037291;28;20044;-65
2023/01/25 05:43:23;;;;;;;14.32;8.15;;;;;;;;;;5038164;28;20401;-65
2023/01/25 05:45:51;;;;;;;16.50;8.85;;;;;;;;;;5037299;28;20041;-66
2023/01/25 05:48:17;;;;;;;18.52;9.65;;;;;;;;;;5021224;28;20045;-67
2023/01/25 05:50:44;;;;;;;20.13;9.65;;;;;;;;;;5037452;28;20172;-68
2023/01/25 05:53:14;;;;;;;19.67;9.52;;;;;;;;;;5054222;28;20119;-66
2023/01/25 05:55:40;;;;;;;14.02;7.40;;;;;;;;;;5037150;28;20152;-69
2023/01/25 05:58:13;;;;;;;19.35;10.20;;;;;;;;;;5036981;28;20036;-70
2023/01/25 06:00:38;;;;;;;19.88;10.27;;;;;;;;;;5037693;28;20437;-67
2023/01/25 06:03:04;;;;;;;21.98;10.73;;;;;;;;;;5038053;28;20048;-68
2023/01/25 06:05:32;;;;;;;17.13;8.57;;;;;;;;;;5035604;28;20065;-68
2023/01/25 06:07:58;;;;;;;21.42;9.82;;;;;;;;;;5038411;28;20026;-67
2023/01/25 06:10:31;;;;;;;15.13;7.82;;;;;;;;;;5039335;28;20141;-67
2023/01/25 06:12:58;;;;;;;19.58;9.95;;;;;;;;;;5037983;28;20059;-67
2023/01/25 06:15:24;;;;;;;24.20;10.60;;;;;;;;;;5037009;28;20984;-66
2023/01/25 06:17:54;;;;;;;17.38;9.55;;;;;;;;;;5035927;28;20053;-66
2023/01/25 06:20:42;;;;;;;12.43;7.55;;;;;;;;;;5030620;28;20061;-68
2023/01/25 06:23:08;;;;;;;20.20;9.23;;;;;;;;;;5018026;28;20049;-66
2023/01/25 06:25:33;;;;;;;17.30;9.20;;;;;;;;;;5015648;28;20049;-67
2023/01/25 06:27:59;;;;;;;20.17;10.85;;;;;;;;;;5016707;28;20038;-67
2023/01/25 06:30:24;;;;;;;18.48;9.73;;;;;;;;;;5022103;28;20060;-66
2023/01/25 06:32:49;;;;;;;21.45;10.85;;;;;;;;;;5037372;28;20061;-66
2023/01/25 06:35:15;;;;;;;28.30;11.68;;;;;;;;;;5021059;28;21271;-68
2023/01/25 06:37:41;;;;;;;24.30;11.25;;;;;;;;;;5022426;28;20045;-66
2023/01/25 06:40:07;;;;;;;21.98;10.30;;;;;;;;;;5040604;28;20954;-67
2023/01/25 06:42:32;;;;;;;24.08;10.45;;;;;;;;;;5043772;28;20080;-66
2023/01/25 06:44:58;;;;;;;12.57;7.45;;;;;;;;;;5043021;28;20064;-67
2023/01/25 06:47:23;;;;;;;14.75;8.25;;;;;;;;;;5042967;28;20048;-66
2023/01/25 06:49:49;;;;;;;13.77;6.75;;;;;;;;;;5043760;28;20048;-67
2023/01/25 06:52:14;;;;;;;12.32;7.18;;;;;;;;;;5043515;28;20068;-66
2023/01/25 06:54:40;;;;;;;12.50;6.78;;;;;;;;;;5043772;28;20773;-69
2023/01/25 06:57:05;;;;;;;12.75;7.38;;;;;;;;;;5042721;28;20451;-67
2023/01/25 06:59:31;;;;;;;16.50;7.63;;;;;;;;;;5032095;28;20873;-71
2023/01/25 07:01:56;;;;;;;12.15;6.88;;;;;;;;;;5042079;28;20579;-67
2023/01/25 07:04:21;;;;;;;19.45;10.00;;;;;;;;;;5042345;28;20402;-67
2023/01/25 07:06:47;;;;;;;19.42;9.82;;;;;;;;;;5041686;28;20576;-68
2023/01/25 07:09:13;;;;;;;18.65;9.25;;;;;;;;;;5043199;28;20051;-66
2023/01/25 07:11:38;;;;;;;24.15;12.90;;;;;;;;;;5042655;28;20135;-67
2023/01/25 07:14:04;;;;;;;25.05;10.77;;;;;;;;;;5042742;28;20036;-74
2023/01/25 07:16:35;;;;;;;16.70;9.52;;;;;;;;;;5042404;28;20049;-68
2023/01/25 07:19:02;;;;;;;14.68;8.13;;;;;;;;;;5042364;28;20117;-67
2023/01/25 07:21:27;;;;;;;21.70;9.70;;;;;;;;;;5041498;28;20127;-68
2023/01/25 07:23:58;;;;;;;15.48;9.10;;;;;;;;;;5042033;28;20098;-68
2023/01/25 07:26:24;;;;;;;22.33;10.75;;;;;;;;;;5040615;28;20057;-68
2023/01/25 07:28:51;;;;;;;15.68;8.02;;;;;;;;;;5040685;28;20094;-70
2023/01/25 07:31:19;;;;;;;12.95;7.22;;;;;;;;;;5040703;28;20521;-70
2023/01/25 07:33:49;;;;;;;22.38;10.38;;;;;;;;;;5040175;28;20049;-70
2023/01/25 07:36:14;;;;;;;15.80;9.27;;;;;;;;;;5040757;28;20059;-69
2023/01/25 07:38:40;;;;;;;11.80;6.85;;;;;;;;;;5042404;28;20045;-67
2023/01/25 07:41:05;;;;;;;18.48;9.55;;;;;;;;;;5040881;28;20120;-67
2023/01/25 07:43:31;;;;;;;10.50;6.20;;;;;;;;;;5041673;28;21275;-67
2023/01/25 07:46:02;;;;;;;15.73;8.73;;;;;;;;;;5040442;28;20041;-71
2023/01/25 07:48:28;;;;;;;13.30;7.72;;;;;;;;;;5040594;28;20072;-69
2023/01/25 07:53:42;;;;;;;16.35;9.10;;;;;;;;;;5042528;28;20053;-67
2023/01/25 07:56:10;;;;;;;18.17;8.80;;;;;;;;;;5041515;28;20048;-68
2023/01/25 07:58:36;;;;;;;13.15;7.05;;;;;;;;;;5057202;28;20057;-68
2023/01/25 08:01:09;;;;;;;13.57;6.88;;;;;;;;;;5040714;28;20060;-69
2023/01/25 08:03:35;;;;;;;16.20;8.02;;;;;;;;;;5056447;28;20162;-69
2023/01/25 08:06:04;;;;;;;19.80;10.88;;;;;;;;;;5041603;28;20091;-70
2023/01/25 08:08:33;;;;;;;19.33;9.60;;;;;;;;;;5041226;28;20112;-70
2023/01/25 08:11:05;;;;;;;16.30;8.20;;;;;;;;;;5041400;28;20040;-68
2023/01/25 08:13:30;;;;;;;17.20;9.98;;;;;;;;;;5042042;28;20049;-66
2023/01/25 08:15:56;;;;;;;17.05;9.40;;;;;;;;;;5041504;28;20052;-66
2023/01/25 08:18:21;;;;;;;16.35;9.07;;;;;;;;;;5041527;28;20029;-68
2023/01/25 08:20:47;;;;;;;22.45;8.98;;;;;;;;;;5041271;28;20044;-66
2023/01/25 08:23:13;;;;;;;17.85;10.35;;;;;;;;;;5041620;28;20128;-67
2023/01/25 08:25:39;;;;;;;32.90;14.02;;;;;;;;;;5041345;28;20149;-67
2023/01/25 08:28:04;;;;;;;44.08;19.33;;;;;;;;;;5042074;28;20043;-67
2023/01/25 08:30:30;;;;;;;14.20;7.32;;;;;;;;;;5041406;28;20079;-69
2023/01/25 08:32:55;;;;;;;22.23;11.50;;;;;;;;;;5041440;28;20102;-70
2023/01/25 08:35:21;;;;;;;20.40;9.93;;;;;;;;;;5039890;28;20083;-70
2023/01/25 08:37:46;;;;;;;18.80;10.18;;;;;;;;;;5041622;28;20052;-68
2023/01/25 08:40:13;;;;;;;18.05;9.35;;;;;;;;;;5041411;28;20045;-69
2023/01/25 08:42:39;;;;;;;15.63;8.65;;;;;;;;;;5040672;28;20088;-69
2023/01/25 08:45:05;;;;;;;17.80;9.55;;;;;;;;;;5040997;28;20128;-68
2023/01/25 08:47:30;;;;;;;20.17;9.75;;;;;;;;;;5040563;28;20107;-69
2023/01/25 08:49:55;;;;;;;19.33;9.93;;;;;;;;;;5041661;28;20045;-69
2023/01/25 08:52:21;;;;;;;16.38;8.88;;;;;;;;;;5040346;28;20492;-68
2023/01/25 08:54:47;;;;;;;17.75;8.48;;;;;;;;;;5041215;28;20049;-68
2023/01/25 08:57:12;;;;;;;14.77;8.05;;;;;;;;;;5039583;28;20069;-70
2023/01/25 08:59:37;;;;;;;11.95;6.97;;;;;;;;;;5040822;28;20064;-73
2023/01/25 09:02:03;;;;;;;17.98;8.20;;;;;;;;;;5040664;28;20044;-71
2023/01/25 09:04:28;;;;;;;14.50;7.68;;;;;;;;;;5040744;28;20064;-70
2023/01/25 09:06:54;;;;;;;17.65;9.27;;;;;;;;;;5039530;28;20053;-68
2023/01/25 09:09:21;;;;;;;12.93;7.68;;;;;;;;;;5040105;28;20045;-72
2023/01/25 09:11:47;;;;;;;18.58;8.77;;;;;;;;;;5040455;28;20041;-68
2023/01/25 09:14:12;;;;;;;16.05;9.68;;;;;;;;;;5040217;28;20407;-68
2023/01/25 09:16:38;;;;;;;19.00;8.68;;;;;;;;;;5040086;28;20378;-68
2023/01/25 09:19:04;;;;;;;17.08;9.00;;;;;;;;;;5039703;28;20466;-68
2023/01/25 09:21:30;;;;;;;15.68;9.13;;;;;;;;;;5040245;28;20485;-70
2023/01/25 09:23:56;;;;;;;18.23;8.68;;;;;;;;;;5040880;28;20041;-68
2023/01/25 09:26:21;;;;;;;16.50;8.90;;;;;;;;;;5039833;28;20049;-71
2023/01/25 09:28:49;;;;;;;17.20;8.25;;;;;;;;;;5039976;28;20103;-69
2023/01/25 09:31:15;;;;;;;18.50;8.60;;;;;;;;;;5040125;28;20044;-68
2023/01/25 09:33:59;;;;;;;21.65;9.98;;;;;;;;;;5039907;28;20512;-70
2023/01/25 09:36:25;;;;;;;21.40;10.10;;;;;;;;;;5036239;28;24062;-70
2023/01/25 09:38:51;;;;;;;17.73;8.45;;;;;;;;;;5040463;28;20045;-71
2023/01/25 09:41:25;;;;;;;16.15;8.18;;;;;;;;;;5037410;28;21201;-68
2023/01/25 09:43:54;;;;;;;19.65;7.93;;;;;;;;;;5040433;28;20589;-68
2023/01/25 09:46:40;;;;;;;14.50;7.07;;;;;;;;;;5039586;28;20079;-68
2023/01/25 09:49:14;;;;;;;18.88;9.15;;;;;;;;;;5038501;28;20045;-68
2023/01/25 09:51:54;;;;;;;17.05;8.27;;;;;;;;;;5038819;28;20052;-68
2023/01/25 09:54:21;;;;;;;20.70;9.82;;;;;;;;;;5039782;28;20053;-68
2023/01/25 09:56:48;;;;;;;15.98;8.00;;;;;;;;;;5039506;28;20059;-68
2023/01/25 09:59:17;;;;;;;16.83;8.02;;;;;;;;;;5038778;28;20045;-69
2023/01/25 10:01:48;;;;;;;20.73;9.55;;;;;;;;;;5038571;28;20852;-69
2023/01/25 10:04:21;;;;;;;16.40;8.68;;;;;;;;;;5039423;28;20068;-69
2023/01/25 10:06:52;;;;;;;21.15;9.07;;;;;;;;;;5039125;28;20144;-68
2023/01/25 10:09:36;;;;;;;18.40;9.30;;;;;;;;;;5040077;28;20559;-66
2023/01/25 10:12:14;;;;;;;16.80;8.65;;;;;;;;;;5037778;28;20834;-66
2023/01/25 10:14:39;;;;;;;20.95;9.55;;;;;;;;;;5021208;28;20059;-67
2023/01/25 10:17:12;;;;;;;14.13;7.05;;;;;;;;;;5039535;28;20033;-68
2023/01/25 10:19:55;;;;;;;17.13;8.43;;;;;;;;;;5039629;28;20040;-71
2023/01/25 10:22:27;;;;;;;18.42;9.25;;;;;;;;;;5038039;28;20895;-69
2023/01/25 10:25:14;;;;;;;17.20;8.18;;;;;;;;;;5037805;28;20045;-69
2023/01/25 10:27:48;;;;;;;21.20;11.02;;;;;;;;;;5038589;28;20148;-69
2023/01/25 10:30:35;;;;;;;18.63;9.20;;;;;;;;;;5038067;28;20108;-69
2023/01/25 10:33:10;;;;;;;21.45;9.55;;;;;;;;;;5036988;28;20055;-67
2023/01/25 10:35:41;;;;;;;18.33;9.80;;;;;;;;;;5036855;28;20417;-67
2023/01/25 10:38:18;;;;;;;18.25;8.48;;;;;;;;;;5037732;28;20195;-67
2023/01/25 10:41:16;;;;;;;21.10;10.32;;;;;;;;;;5037783;28;20490;-66
2023/01/25 10:43:42;;;;;;;23.13;10.30;;;;;;;;;;5032566;28;20041;-66
2023/01/25 10:46:20;;;;;;;15.35;7.55;;;;;;;;;;5037141;28;20056;-66
2023/01/25 10:48:46;;;;;;;21.38;9.88;;;;;;;;;;5039239;28;20099;-66
2023/01/25 10:51:28;;;;;;;24.63;10.57;;;;;;;;;;5039405;28;20699;-66
2023/01/25 10:54:02;;;;;;;21.20;9.90;;;;;;;;;;5038333;28;20075;-67
2023/01/25 10:56:29;;;;;;;22.45;10.88;;;;;;;;;;5036649;28;20104;-67
2023/01/25 10:59:15;;;;;;;21.60;10.25;;;;;;;;;;5039263;28;20053;-67
2023/01/25 11:01:41;;;;;;;16.73;9.38;;;;;;;;;;5039061;28;20102;-67
2023/01/25 11:04:32;;;;;;;22.60;9.70;;;;;;;;;;5038359;28;21297;-67
2023/01/25 11:06:58;;;;;;;21.10;9.32;;;;;;;;;;5037694;28;20049;-68
2023/01/25 11:09:36;;;;;;;24.42;10.38;;;;;;;;;;5038244;28;20049;-67
2023/01/25 11:12:17;;;;;;;20.80;8.90;;;;;;;;;;5038780;28;20049;-67
2023/01/25 11:14:43;;;;;;;15.77;7.93;;;;;;;;;;5021506;28;20049;-67
2023/01/25 11:17:31;;;;;;;23.55;11.70;;;;;;;;;;5040331;28;20033;-67
2023/01/25 11:20:17;;;;;;;17.33;9.20;;;;;;;;;;5042118;28;20037;-67
2023/01/25 11:22:55;;;;;;;19.80;9.30;;;;;;;;;;5039574;28;20470;-67
2023/01/25 11:25:30;;;;;;;22.13;9.68;;;;;;;;;;5041048;28;20049;-68
2023/01/25 11:28:20;;;;;;;18.73;7.55;;;;;;;;;;5042678;28;20075;-67
2023/01/25 11:30:46;;;;;;;18.58;9.48;;;;;;;;;;5034429;28;20162;-67
2023/01/25 11:33:14;;;;;;;26.83;12.02;;;;;;;;;;5043089;28;20040;-67
2023/01/25 11:35:59;;;;;;;18.70;9.52;;;;;;;;;;5042108;28;20056;-67
2023/01/25 11:38:25;;;;;;;22.10;9.60;;;;;;;;;;5042373;28;20040;-67
2023/01/25 11:41:06;;;;;;;24.63;10.25;;;;;;;;;;5041093;28;20162;-67
2023/01/25 11:43:53;;;;;;;18.30;8.80;;;;;;;;;;5042635;28;20485;-67
2023/01/25 11:47:15;;;;;;;19.58;9.38;;;;;;;;;;5041464;28;20037;-67
2023/01/25 11:49:55;;;;;;;15.18;7.90;;;;;;;;;;4968606;28;20055;-67
2023/01/25 11:52:25;;;;;;;16.23;8.73;;;;;;;;;;4964586;28;20051;-67
2023/01/25 11:54:59;;;;;;;28.40;13.43;;;;;;;;;;5018833;28;20315;-67
2023/01/25 11:57:35;;;;;;;28.00;11.18;;;;;;;;;;5041733;28;20049;-67
2023/01/25 12:00:24;;;;;;;21.95;9.93;;;;;;;;;;5042191;28;20049;-67
2023/01/25 12:02:52;;;;;;;26.73;12.43;;;;;;;;;;5038168;28;20071;-68
2023/01/25 12:05:23;;;;;;;21.85;10.18;;;;;;;;;;5040666;28;20041;-69
2023/01/25 12:08:09;;;;;;;16.17;8.45;;;;;;;;;;5040022;28;20060;-67
2023/01/25 12:10:56;;;;;;;19.50;9.20;;;;;;;;;;5041679;28;20048;-67
2023/01/25 12:13:38;;;;;;;17.95;9.57;;;;;;;;;;5041689;28;20041;-67
2023/01/25 12:16:32;;;;;;;18.02;8.43;;;;;;;;;;5040799;28;20045;-68
2023/01/25 12:18:57;;;;;;;17.33;8.15;;;;;;;;;;5039443;28;20061;-67
2023/01/25 12:22:05;;;;;;;11.73;6.57;;;;;;;;;;5041452;28;20131;-67
2023/01/25 12:24:32;;;;;;;11.90;6.40;;;;;;;;;;5022660;28;20056;-69
2023/01/25 12:27:22;;;;;;;17.45;8.05;;;;;;;;;;5041149;28;20624;-68
2023/01/25 12:29:57;;;;;;;15.85;6.93;;;;;;;;;;5041524;28;20064;-67
2023/01/25 12:32:34;;;;;;;14.65;7.07;;;;;;;;;;5040196;28;20136;-67
2023/01/25 12:35:13;;;;;;;17.80;7.95;;;;;;;;;;5039940;28;20041;-68
2023/01/25 12:37:44;;;;;;;18.85;8.35;;;;;;;;;;5037666;28;20884;-68
2023/01/25 12:40:34;;;;;;;19.90;8.63;;;;;;;;;;5040282;28;20071;-67
2023/01/25 12:43:00;;;;;;;12.57;6.53;;;;;;;;;;5037574;28;20064;-68
2023/01/25 12:45:37;;;;;;;16.58;7.95;;;;;;;;;;5040081;28;20037;-68
2023/01/25 12:48:09;;;;;;;18.40;8.43;;;;;;;;;;5037892;28;20045;-68
2023/01/25 12:50:41;;;;;;;14.82;8.27;;;;;;;;;;5039084;28;20521;-68
2023/01/25 12:53:20;;;;;;;15.70;7.30;;;;;;;;;;5040023;28;20131;-67
2023/01/25 12:55:47;;;;;;;15.70;8.60;;;;;;;;;;5040532;28;20140;-68
2023/01/25 12:58:21;;;;;;;13.57;7.05;;;;;;;;;;5039147;28;20064;-68
2023/01/25 13:01:22;;;;;;;13.70;7.00;;;;;;;;;;5037631;28;20563;-69
2023/01/25 13:04:13;;;;;;;16.10;8.17;;;;;;;;;;5040189;28;20048;-68
2023/01/25 13:06:54;;;;;;;17.90;7.85;;;;;;;;;;5036319;28;20317;-68
2023/01/25 13:09:34;;;;;;;13.50;7.63;;;;;;;;;;5039816;28;20076;-68
2023/01/25 13:12:02;;;;;;;16.42;9.38;;;;;;;;;;5039347;28;20040;-71
2023/01/25 13:14:29;;;;;;;16.30;8.18;;;;;;;;;;5038883;28;20673;-68
2023/01/25 13:17:18;;;;;;;17.48;8.85;;;;;;;;;;5039111;28;20049;-68
2023/01/25 13:19:43;;;;;;;11.95;7.45;;;;;;;;;;5037690;28;20087;-67
2023/01/25 13:22:11;;;;;;;15.82;7.88;;;;;;;;;;5037966;28;20045;-69
2023/01/25 13:25:01;;;;;;;16.35;8.57;;;;;;;;;;5040692;28;20141;-69
2023/01/25 13:27:33;;;;;;;11.80;7.10;;;;;;;;;;5039246;28;20079;-68
2023/01/25 13:30:25;;;;;;;18.38;9.57;;;;;;;;;;5040116;28;20040;-67
2023/01/25 13:32:50;;;;;;;18.87;10.40;;;;;;;;;;5022076;28;20620;-67
2023/01/25 13:35:26;;;;;;;21.33;11.15;;;;;;;;;;5039397;28;20041;-67
2023/01/25 13:38:02;;;;;;;18.20;9.55;;;;;;;;;;5038813;28;20037;-68
2023/01/25 13:40:30;;;;;;;18.67;9.48;;;;;;;;;;5038841;28;20057;-70
2023/01/25 13:43:00;;;;;;;18.05;8.45;;;;;;;;;;5038868;28;20127;-68
2023/01/25 13:45:27;;;;;;;22.95;10.45;;;;;;;;;;5040366;28;20037;-69
2023/01/25 13:48:10;;;;;;;17.85;9.43;;;;;;;;;;5039741;28;20526;-68
2023/01/25 13:50:39;;;;;;;19.95;10.40;;;;;;;;;;5039849;28;20589;-70
2023/01/25 13:53:13;;;;;;;21.38;9.82;;;;;;;;;;5039064;28;20039;-68
2023/01/25 13:56:00;;;;;;;21.42;10.27;;;;;;;;;;5039130;28;20067;-68
2023/01/25 13:58:30;;;;;;;21.38;10.60;;;;;;;;;;5038242;28;20045;-68
2023/01/25 14:00:58;;;;;;;22.48;11.07;;;;;;;;;;5038766;28;20233;-68
2023/01/25 14:03:30;;;;;;;17.75;9.52;;;;;;;;;;5037757;28;20045;-69
2023/01/25 14:05:58;;;;;;;22.45;10.30;;;;;;;;;;5039314;28;20060;-69
2023/01/25 14:08:25;;;;;;;15.52;7.28;;;;;;;;;;5038379;28;20041;-67
2023/01/25 14:10:52;;;;;;;22.38;10.20;;;;;;;;;;5039307;28;20044;-67
2023/01/25 14:13:18;;;;;;;23.50;10.00;;;;;;;;;;5038616;28;20056;-67
2023/01/25 14:16:03;;;;;;;25.23;13.05;;;;;;;;;;5037441;28;20055;-68
2023/01/25 14:18:33;;;;;;;28.45;12.57;;;;;;;;;;5038921;28;20091;-67
2023/01/25 14:21:14;;;;;;;32.63;14.02;;;;;;;;;;5037802;28;20048;-67
2023/01/25 14:23:39;;;;;;;35.05;14.48;;;;;;;;;;5040151;28;20049;-68
2023/01/25 14:26:18;;;;;;;31.17;13.45;;;;;;;;;;5034345;28;20162;-68
2023/01/25 14:28:46;;;;;;;35.45;14.90;;;;;;;;;;5034046;28;20049;-68
2023/01/25 14:31:20;;;;;;;35.60;14.98;;;;;;;;;;5039344;28;20048;-68
2023/01/25 14:33:47;;;;;;;25.05;11.18;;;;;;;;;;5039014;28;20077;-68
2023/01/25 14:36:17;;;;;;;33.78;14.63;;;;;;;;;;5037758;28;20037;-67
2023/01/25 14:38:43;;;;;;;37.42;15.63;;;;;;;;;;5037927;28;20592;-69
2023/01/25 14:41:16;;;;;;;36.63;15.18;;;;;;;;;;5038880;28;20159;-68
2023/01/25 14:43:45;;;;;;;40.42;15.18;;;;;;;;;;5035706;28;20187;-69
2023/01/25 14:46:27;;;;;;;41.72;16.55;;;;;;;;;;5037559;28;20064;-68
2023/01/25 14:49:10;;;;;;;;;;;;;;;;;;5039246;28;20067;-68